Time;durP1;ratioP1;P1;durP2;ratioP2;P2;SDS_P1;SDS_P2;PMS_P1;PMS_P2;Temp;Humidity;BMP_temperature;BMP_pressure;BME280_temperature;BME280_humidity;BME280_pressure;Samples;Min_cycle;Max_cycle;Signal;HPM_P1;HPM_P2
2022/09/03 00:02:36;;;;;;;0.60;0.50;;;;;;;20.37;100.00;95172.78;5131453;28;20841;-59
2022/09/03 00:05:10;;;;;;;0.97;0.83;;;;;;;20.30;100.00;95172.56;5132202;27;20421;-58
2022/09/03 00:07:48;;;;;;;0.50;0.30;;;;;;;19.91;100.00;95169.28;5135372;27;20971;-58
2022/09/03 00:10:24;;;;;;;0.77;0.77;;;;;;;20.18;100.00;95168.72;5135878;27;20973;-58
2022/09/03 00:12:58;;;;;;;0.60;0.50;;;;;;;20.21;100.00;95175.34;5136111;27;20805;-58
2022/09/03 00:15:28;;;;;;;0.50;0.40;;;;;;;20.29;100.00;95171.00;5136198;27;20448;-58
2022/09/03 00:18:00;;;;;;;0.50;0.40;;;;;;;20.22;100.00;95171.50;5136008;27;20427;-58
2022/09/03 00:20:33;;;;;;;0.67;0.57;;;;;;;20.22;100.00;95166.91;5135972;27;20439;-58
2022/09/03 00:23:06;;;;;;;4.10;0.60;;;;;;;20.26;100.00;95173.22;5135963;27;20481;-58
2022/09/03 00:25:39;;;;;;;0.97;0.97;;;;;;;20.32;100.00;95173.00;5135634;27;20518;-58
2022/09/03 00:28:14;;;;;;;0.57;0.57;;;;;;;20.29;100.00;95173.72;5135947;27;20477;-58
2022/09/03 00:30:45;;;;;;;0.57;0.57;;;;;;;20.30;100.00;95175.25;5135569;27;21016;-58
2022/09/03 00:33:19;;;;;;;0.40;0.30;;;;;;;19.97;100.00;95173.34;5135273;27;20884;-58
2022/09/03 00:35:53;;;;;;;0.83;0.83;;;;;;;19.82;100.00;95182.03;5135724;27;20965;-58
2022/09/03 00:38:23;;;;;;;0.60;0.40;;;;;;;20.04;100.00;95176.28;5135486;27;20636;-58
2022/09/03 00:41:09;;;;;;;0.70;0.57;;;;;;;20.17;100.00;95174.41;5135709;27;20429;-58
2022/09/03 00:43:56;;;;;;;0.87;0.57;;;;;;;20.10;100.00;95180.34;5135261;27;20513;-58
2022/09/03 00:46:32;;;;;;;0.83;0.40;;;;;;;20.15;100.00;95171.28;5135253;27;20465;-58
2022/09/03 00:49:17;;;;;;;0.50;0.50;;;;;;;20.16;100.00;95180.94;5135080;27;20458;-58
2022/09/03 00:51:53;;;;;;;0.50;0.40;;;;;;;20.10;100.00;95182.25;5135350;27;20510;-58
2022/09/03 00:54:33;;;;;;;0.50;0.33;;;;;;;19.74;100.00;95131.81;5135111;27;20518;-57
2022/09/03 00:57:17;;;;;;;0.63;0.60;;;;;;;19.87;100.00;95189.13;5135346;27;20459;-58
2022/09/03 00:59:57;;;;;;;0.50;0.50;;;;;;;19.94;100.00;95190.16;5135311;27;20537;-57
2022/09/03 01:02:34;;;;;;;1.43;1.03;;;;;;;19.50;100.00;95188.97;5135087;27;20446;-58
2022/09/03 01:05:10;;;;;;;0.70;0.60;;;;;;;19.26;100.00;95196.06;5135174;27;20437;-57
2022/09/03 01:07:48;;;;;;;0.47;0.37;;;;;;;19.45;100.00;95199.91;5135135;27;20473;-58
2022/09/03 01:10:29;;;;;;;1.07;1.00;;;;;;;19.02;100.00;95199.38;5134610;27;20508;-58
2022/09/03 01:13:02;;;;;;;0.40;0.30;;;;;;;18.91;100.00;95196.28;5134649;27;20758;-58
2022/09/03 01:15:40;;;;;;;0.40;0.30;;;;;;;19.32;100.00;95194.75;5134637;27;20419;-58
2022/09/03 01:18:21;;;;;;;0.50;0.30;;;;;;;19.38;100.00;95190.81;5134609;27;20433;-58
2022/09/03 01:21:08;;;;;;;1.30;0.87;;;;;;;19.34;100.00;95197.91;5134826;27;20449;-58
2022/09/03 01:24:06;;;;;;;1.10;0.40;;;;;;;19.07;100.00;95209.94;5134471;27;21017;-58
2022/09/03 01:26:52;;;;;;;0.40;0.30;;;;;;;19.44;100.00;95202.91;5134467;27;20427;-57
2022/09/03 01:29:27;;;;;;;0.60;0.43;;;;;;;19.55;100.00;95201.41;5134219;27;20506;-58
2022/09/03 01:32:07;;;;;;;0.50;0.37;;;;;;;19.50;100.00;95202.41;5134360;27;20422;-58
2022/09/03 01:34:49;;;;;;;0.50;0.40;;;;;;;19.42;100.00;95191.72;5134190;27;20494;-58
2022/09/03 01:37:30;;;;;;;0.50;0.40;;;;;;;19.61;100.00;95194.72;5134130;27;20470;-58
2022/09/03 01:40:07;;;;;;;1.03;0.40;;;;;;;19.72;100.00;95193.22;5133807;27;20538;-58
2022/09/03 01:42:48;;;;;;;0.57;0.30;;;;;;;19.71;100.00;95193.56;5133790;27;20501;-58
2022/09/03 01:45:39;;;;;;;0.50;0.30;;;;;;;19.73;100.00;95188.63;5133742;27;20518;-58
2022/09/03 01:48:38;;;;;;;0.70;0.50;;;;;;;19.70;100.00;95184.69;5133881;27;20549;-58
2022/09/03 01:51:16;;;;;;;0.87;0.50;;;;;;;19.72;100.00;95192.41;5133512;27;21042;-57
2022/09/03 01:54:06;;;;;;;0.47;0.33;;;;;;;19.77;100.00;95189.53;5133646;27;20462;-58
2022/09/03 01:56:58;;;;;;;0.40;0.40;;;;;;;19.75;100.00;95189.88;5133872;27;20509;-57
2022/09/03 01:59:31;;;;;;;0.83;0.83;;;;;;;19.08;100.00;95200.75;5133511;27;20849;-58
2022/09/03 02:02:05;;;;;;;1.33;1.23;;;;;;;18.35;100.00;95202.00;5133460;27;20451;-57
2022/09/03 02:04:34;;;;;;;1.03;1.03;;;;;;;18.04;100.00;95199.53;5133673;27;20450;-58
2022/09/03 02:07:04;;;;;;;1.03;1.03;;;;;;;17.94;100.00;95207.91;5133310;27;20514;-58
2022/09/03 02:09:33;;;;;;;1.43;0.97;;;;;;;18.09;100.00;95212.78;5133287;27;20461;-57
2022/09/03 02:12:08;;;;;;;2.43;2.13;;;;;;;18.05;100.00;95214.53;5133349;27;20926;-57
2022/09/03 02:14:36;;;;;;;0.50;0.40;;;;;;;18.13;100.00;95208.38;5133227;27;20501;-57
2022/09/03 02:17:07;;;;;;;0.50;0.40;;;;;;;18.64;100.00;95218.19;5133463;27;20483;-58
2022/09/03 02:19:36;;;;;;;0.83;0.40;;;;;;;18.85;100.00;95210.97;5132658;27;20930;-58
2022/09/03 02:22:06;;;;;;;0.60;0.30;;;;;;;18.71;100.00;95123.72;5133154;27;20458;-57
2022/09/03 02:24:34;;;;;;;0.40;0.30;;;;;;;19.41;100.00;95215.09;5133084;27;20518;-57
2022/09/03 02:27:03;;;;;;;0.50;0.40;;;;;;;19.52;100.00;95210.94;5133721;27;20446;-57
2022/09/03 02:29:32;;;;;;;0.50;0.30;;;;;;;19.24;100.00;95217.88;5132365;27;20561;-58
2022/09/03 02:32:01;;;;;;;0.40;0.30;;;;;;;19.11;100.00;95218.13;5133288;27;20476;-58
2022/09/03 02:34:31;;;;;;;1.03;1.03;;;;;;;19.07;100.00;95215.31;5132820;27;20557;-58
2022/09/03 02:36:59;;;;;;;0.60;0.50;;;;;;;18.96;100.00;95225.63;5132838;27;20450;-58
2022/09/03 02:39:28;;;;;;;0.40;0.30;;;;;;;19.27;100.00;95227.19;5133203;27;20446;-58
2022/09/03 02:41:58;;;;;;;0.40;0.30;;;;;;;19.12;100.00;95214.31;5133137;27;20438;-58
2022/09/03 02:44:31;;;;;;;0.60;0.50;;;;;;;19.20;100.00;95218.88;5132803;27;20426;-58
2022/09/03 02:47:00;;;;;;;0.70;0.70;;;;;;;19.36;100.00;95209.09;5133005;27;20581;-58
2022/09/03 02:49:29;;;;;;;0.50;0.33;;;;;;;19.27;100.00;95209.19;5132609;27;20461;-58
2022/09/03 02:52:00;;;;;;;0.50;0.47;;;;;;;19.19;100.00;95215.38;5132705;27;20449;-58
2022/09/03 02:54:30;;;;;;;0.87;0.87;;;;;;;18.95;100.00;95207.94;5132974;28;20430;-58
2022/09/03 02:56:58;;;;;;;0.60;0.60;;;;;;;18.98;100.00;95209.97;5132996;28;20442;-57
2022/09/03 02:59:27;;;;;;;0.50;0.43;;;;;;;18.70;100.00;95211.53;5132910;28;20461;-58
2022/09/03 03:01:55;;;;;;;0.97;0.40;;;;;;;19.01;100.00;95219.28;5132976;28;20505;-58
2022/09/03 03:04:29;;;;;;;0.50;0.47;;;;;;;19.01;100.00;95216.59;5132887;28;20546;-58
2022/09/03 03:06:59;;;;;;;0.60;0.40;;;;;;;19.09;100.00;95210.41;5132920;28;20502;-58
2022/09/03 03:09:28;;;;;;;0.60;0.40;;;;;;;19.07;100.00;95214.50;5132669;28;20415;-58
2022/09/03 03:11:56;;;;;;;0.40;0.40;;;;;;;18.93;100.00;95207.47;5132390;28;20579;-59
2022/09/03 03:14:25;;;;;;;0.67;0.60;;;;;;;18.89;100.00;95214.63;5132910;28;20502;-58
2022/09/03 03:16:53;;;;;;;2.00;1.07;;;;;;;18.93;100.00;95214.72;5132588;28;20450;-59
2022/09/03 03:19:21;;;;;;;0.73;0.73;;;;;;;18.89;100.00;95216.50;5132778;28;20427;-59
2022/09/03 03:21:50;;;;;;;0.50;0.50;;;;;;;19.11;100.00;95223.50;5132616;28;20462;-58
2022/09/03 03:24:20;;;;;;;0.70;0.70;;;;;;;19.34;100.00;95225.56;5132448;28;20419;-58
2022/09/03 03:26:48;;;;;;;0.73;0.50;;;;;;;19.10;100.00;95225.38;5132311;28;20475;-59
2022/09/03 03:29:18;;;;;;;0.50;0.40;;;;;;;19.15;100.00;95227.13;5132655;28;20526;-58
2022/09/03 03:31:46;;;;;;;0.40;0.30;;;;;;;19.05;100.00;95214.06;5132424;28;20505;-58
2022/09/03 03:34:14;;;;;;;1.00;0.80;;;;;;;18.42;100.00;95218.38;5132294;28;20914;-58
2022/09/03 03:36:43;;;;;;;1.83;0.80;;;;;;;18.29;100.00;95216.72;5132556;28;20523;-59
2022/09/03 03:39:11;;;;;;;0.60;0.60;;;;;;;18.73;100.00;95210.88;5132273;28;20455;-59
2022/09/03 03:41:41;;;;;;;1.17;1.07;;;;;;;18.75;100.00;95211.34;5136195;27;20493;-59
2022/09/03 03:44:09;;;;;;;0.60;0.60;;;;;;;19.14;100.00;95212.09;5136470;27;20517;-59
2022/09/03 03:46:40;;;;;;;0.97;0.73;;;;;;;19.34;100.00;95209.44;5136532;27;20469;-59
2022/09/03 03:49:09;;;;;;;0.50;0.30;;;;;;;19.48;100.00;95199.25;5136402;27;20501;-58
2022/09/03 03:51:39;;;;;;;0.40;0.30;;;;;;;19.39;100.00;95221.94;5135901;27;21001;-59
2022/09/03 03:54:07;;;;;;;0.50;0.40;;;;;;;19.09;100.00;95223.03;5135925;27;20505;-59
2022/09/03 03:56:36;;;;;;;0.40;0.40;;;;;;;19.07;100.00;95223.38;5136106;27;20526;-59
2022/09/03 03:59:06;;;;;;;0.60;0.50;;;;;;;19.28;100.00;95221.47;5135847;27;20466;-59
2022/09/03 04:01:34;;;;;;;0.93;0.87;;;;;;;19.34;100.00;95214.81;5135842;27;20521;-59
2022/09/03 04:04:04;;;;;;;0.60;0.50;;;;;;;19.65;100.00;95219.84;5135812;27;20457;-59
2022/09/03 04:06:32;;;;;;;0.40;0.30;;;;;;;19.65;100.00;95217.16;5136144;27;20485;-59
2022/09/03 04:09:01;;;;;;;0.40;0.40;;;;;;;19.63;100.00;95225.53;5136164;27;20876;-59
2022/09/03 04:11:29;;;;;;;0.63;0.40;;;;;;;19.49;100.00;95237.66;5135845;27;20887;-59
2022/09/03 04:13:58;;;;;;;1.63;0.30;;;;;;;19.46;100.00;95231.03;5135897;27;20476;-59
2022/09/03 04:16:28;;;;;;;0.67;0.30;;;;;;;19.48;100.00;95239.56;5135575;27;20458;-58
2022/09/03 04:18:57;;;;;;;0.60;0.50;;;;;;;18.64;100.00;95241.56;5135503;27;20437;-59
2022/09/03 04:21:27;;;;;;;1.00;0.60;;;;;;;18.98;100.00;95236.03;5135428;27;20427;-57
2022/09/03 04:23:57;;;;;;;0.60;0.60;;;;;;;19.03;100.00;95247.38;5135518;27;20509;-59
2022/09/03 04:26:29;;;;;;;0.50;0.47;;;;;;;18.51;100.00;95173.56;5135400;27;20459;-58
2022/09/03 04:28:59;;;;;;;0.70;0.50;;;;;;;18.78;100.00;95250.97;5135668;27;20426;-60
2022/09/03 04:31:30;;;;;;;0.50;0.33;;;;;;;18.92;100.00;95240.81;5135216;27;20462;-60
2022/09/03 04:33:59;;;;;;;0.60;0.40;;;;;;;19.10;100.00;95244.19;5135231;27;20477;-60
2022/09/03 04:36:29;;;;;;;0.40;0.30;;;;;;;19.06;100.00;95245.97;5135334;27;20430;-60
2022/09/03 04:39:00;;;;;;;1.07;0.63;;;;;;;19.04;100.00;95245.50;5135025;27;20526;-60
2022/09/03 04:41:31;;;;;;;0.40;0.30;;;;;;;19.08;100.00;95243.72;5134771;27;20426;-60
2022/09/03 04:44:00;;;;;;;0.63;0.60;;;;;;;19.07;100.00;95262.88;5134799;27;20955;-59
2022/09/03 04:46:32;;;;;;;0.40;0.30;;;;;;;18.94;100.00;95264.66;5134916;27;20509;-60
2022/09/03 04:49:01;;;;;;;2.70;1.00;;;;;;;18.46;100.00;95270.31;5135255;27;20499;-60
2022/09/03 04:51:31;;;;;;;0.63;0.60;;;;;;;17.97;100.00;95271.66;5134016;27;20502;-59
2022/09/03 04:54:01;;;;;;;1.47;0.73;;;;;;;18.41;100.00;95259.75;5134980;27;20487;-60
2022/09/03 04:56:31;;;;;;;0.60;0.40;;;;;;;18.99;100.00;95275.22;5135154;27;20443;-60
2022/09/03 04:59:02;;;;;;;0.70;0.70;;;;;;;19.17;100.00;95281.31;5134916;27;20506;-59
2022/09/03 05:01:33;;;;;;;0.60;0.57;;;;;;;19.00;100.00;95291.00;5134745;27;20521;-59
2022/09/03 05:04:02;;;;;;;0.80;0.80;;;;;;;18.94;100.00;95300.38;5134987;27;20415;-59
2022/09/03 05:06:31;;;;;;;0.60;0.60;;;;;;;19.12;100.00;95294.94;5134591;27;21001;-59
2022/09/03 05:09:00;;;;;;;0.50;0.43;;;;;;;19.23;100.00;95285.38;5134509;27;20470;-59
2022/09/03 05:11:30;;;;;;;0.67;0.40;;;;;;;19.48;100.00;95290.63;5134770;27;20587;-59
2022/09/03 05:13:59;;;;;;;0.40;0.20;;;;;;;19.02;100.00;95293.41;5134356;27;21020;-59
2022/09/03 05:16:29;;;;;;;0.70;0.60;;;;;;;19.43;100.00;95300.81;5134750;27;20422;-58
2022/09/03 05:19:04;;;;;;;1.10;1.00;;;;;;;19.85;100.00;95288.19;5134384;27;20828;-58
2022/09/03 05:21:34;;;;;;;4.40;0.90;;;;;;;19.67;100.00;95300.97;5134310;27;20418;-58
2022/09/03 05:24:04;;;;;;;0.80;0.80;;;;;;;19.68;100.00;95293.69;5134498;27;20502;-59
2022/09/03 05:26:37;;;;;;;0.63;0.60;;;;;;;19.90;100.00;95291.47;5134420;27;20526;-57
2022/09/03 05:29:07;;;;;;;0.40;0.20;;;;;;;19.69;100.00;95204.63;5134318;27;20501;-58
2022/09/03 05:31:38;;;;;;;0.90;0.90;;;;;;;19.98;100.00;95266.41;5134257;27;20458;-58
2022/09/03 05:34:10;;;;;;;0.63;0.63;;;;;;;20.02;100.00;95283.47;5133653;27;20523;-57
2022/09/03 05:36:47;;;;;;;0.50;0.50;;;;;;;20.22;100.00;95288.03;5134339;27;20418;-58
2022/09/03 05:39:16;;;;;;;9.43;0.60;;;;;;;20.35;100.00;95286.19;5134707;27;20530;-58
2022/09/03 05:41:44;;;;;;;0.63;0.60;;;;;;;20.13;100.00;95286.53;5133995;27;20426;-58
2022/09/03 05:44:13;;;;;;;0.60;0.40;;;;;;;19.98;100.00;95293.31;5134555;27;20423;-59
2022/09/03 05:46:42;;;;;;;0.70;0.70;;;;;;;20.49;100.00;95296.69;5134451;27;20421;-60
2022/09/03 05:49:11;;;;;;;0.50;0.50;;;;;;;20.86;100.00;95290.25;5133949;27;20538;-60
2022/09/03 05:51:41;;;;;;;0.50;0.50;;;;;;;20.98;100.00;95292.19;5133814;27;20469;-60
2022/09/03 05:54:10;;;;;;;0.60;0.60;;;;;;;21.02;100.00;95280.41;5133595;27;20938;-60
2022/09/03 05:56:41;;;;;;;0.53;0.47;;;;;;;21.09;100.00;95291.44;5133866;27;20422;-61
2022/09/03 05:59:12;;;;;;;0.70;0.60;;;;;;;20.58;100.00;95241.63;5133799;27;20429;-61
2022/09/03 06:01:42;;;;;;;0.50;0.40;;;;;;;20.77;100.00;95294.97;5133414;27;20974;-60
2022/09/03 06:04:20;;;;;;;2.97;0.83;;;;;;;20.94;100.00;95293.97;5132380;27;20431;-60
2022/09/03 06:06:49;;;;;;;1.03;0.57;;;;;;;21.16;100.00;95291.69;5133295;27;20462;-61
2022/09/03 06:09:19;;;;;;;0.60;0.50;;;;;;;21.36;100.00;95301.56;5133647;27;20451;-60
2022/09/03 06:11:50;;;;;;;0.60;0.60;;;;;;;21.01;100.00;95299.59;5133476;27;20466;-62
2022/09/03 06:14:19;;;;;;;0.80;0.73;;;;;;;21.19;100.00;95299.09;5133281;27;20426;-61
2022/09/03 06:16:51;;;;;;;0.77;0.67;;;;;;;21.27;100.00;95300.91;5133163;27;20550;-60
2022/09/03 06:19:21;;;;;;;0.87;0.87;;;;;;;21.45;100.00;95296.06;5133100;27;20518;-57
2022/09/03 06:21:50;;;;;;;1.03;1.03;;;;;;;21.67;100.00;95297.50;5132996;27;20949;-52
2022/09/03 06:24:22;;;;;;;0.80;0.37;;;;;;;21.01;100.00;95294.22;5133349;27;20843;-51
2022/09/03 06:26:53;;;;;;;0.83;0.40;;;;;;;21.45;100.00;95290.66;5133405;27;20782;-51
2022/09/03 06:29:22;;;;;;;0.67;0.67;;;;;;;21.27;100.00;95289.31;5133414;27;20495;-52
2022/09/03 06:31:51;;;;;;;0.60;0.60;;;;;;;20.91;100.00;95287.34;5132851;27;20550;-51
2022/09/03 06:34:22;;;;;;;0.60;0.60;;;;;;;21.38;100.00;95276.94;5133096;27;20610;-51
2022/09/03 06:36:51;;;;;;;0.60;0.40;;;;;;;21.85;100.00;95279.94;5132972;27;20454;-51
2022/09/03 06:39:22;;;;;;;0.80;0.80;;;;;;;22.36;100.00;95272.94;5133036;27;20819;-51
2022/09/03 06:41:51;;;;;;;0.93;0.70;;;;;;;21.28;100.00;95286.28;5133241;27;20450;-51
2022/09/03 06:44:19;;;;;;;1.20;1.10;;;;;;;21.61;100.00;95286.16;5133235;27;20450;-51
2022/09/03 06:46:47;;;;;;;2.60;0.90;;;;;;;21.81;100.00;95289.81;5132742;27;20509;-51
2022/09/03 06:49:16;;;;;;;1.03;0.97;;;;;;;22.02;100.00;95291.28;5132720;27;20529;-51
2022/09/03 06:51:46;;;;;;;2.13;2.03;;;;;;;21.87;100.00;95299.28;5133029;27;20446;-51
2022/09/03 06:54:15;;;;;;;1.07;1.07;;;;;;;21.35;100.00;95302.66;5132666;27;20425;-51
2022/09/03 06:56:43;;;;;;;0.93;0.93;;;;;;;21.92;100.00;95299.06;5132877;28;20450;-51
2022/09/03 06:59:15;;;;;;;0.60;0.47;;;;;;;22.61;100.00;95293.28;5132632;28;20427;-51
2022/09/03 07:01:44;;;;;;;0.80;0.60;;;;;;;23.13;100.00;95245.22;5132811;28;20509;-52
2022/09/03 07:04:15;;;;;;;0.90;0.87;;;;;;;23.32;100.00;95301.31;5132851;27;20425;-52
2022/09/03 07:06:48;;;;;;;0.70;0.70;;;;;;;23.43;100.00;95282.66;5132467;28;20455;-52
2022/09/03 07:09:17;;;;;;;0.60;0.50;;;;;;;22.69;100.00;95298.53;5132600;28;21067;-52
2022/09/03 07:11:46;;;;;;;0.67;0.67;;;;;;;22.71;100.00;95301.72;5132388;28;20484;-62
2022/09/03 07:14:18;;;;;;;1.07;1.07;;;;;;;23.32;100.00;95296.69;5132679;27;20764;-57
2022/09/03 07:16:47;;;;;;;0.70;0.70;;;;;;;22.78;100.00;95293.00;5136865;27;20762;-56
2022/09/03 07:19:16;;;;;;;1.60;1.50;;;;;;;23.54;100.00;95278.25;5136579;27;20517;-56
2022/09/03 07:21:44;;;;;;;4.30;0.93;;;;;;;23.60;100.00;95302.00;5136761;27;20518;-55
2022/09/03 07:24:20;;;;;;;1.00;1.00;;;;;;;24.30;100.00;95301.97;5136711;27;20441;-56
2022/09/03 07:26:50;;;;;;;3.30;0.77;;;;;;;23.78;100.00;95173.25;5136294;27;20477;-56
2022/09/03 07:29:22;;;;;;;1.80;0.73;;;;;;;24.78;100.00;95301.41;5136552;27;20458;-56
2022/09/03 07:31:51;;;;;;;1.63;0.87;;;;;;;25.22;100.00;95305.28;5136429;27;20461;-56
2022/09/03 07:34:25;;;;;;;0.83;0.83;;;;;;;25.70;100.00;95298.31;5136296;27;20468;-56
2022/09/03 07:36:54;;;;;;;0.90;0.90;;;;;;;26.54;100.00;95302.56;5136413;27;20467;-56
2022/09/03 07:39:24;;;;;;;1.40;1.30;;;;;;;25.99;100.00;95283.22;5136183;27;20863;-56
2022/09/03 07:41:53;;;;;;;1.43;0.80;;;;;;;26.69;100.00;95296.88;5136545;27;20418;-56
2022/09/03 07:44:23;;;;;;;0.57;0.57;;;;;;;27.20;100.00;95299.75;5136493;27;20446;-56
2022/09/03 07:46:51;;;;;;;1.83;1.23;;;;;;;27.19;100.00;95290.06;5136451;27;20454;-56
2022/09/03 07:49:20;;;;;;;0.83;0.80;;;;;;;27.73;95.21;95307.63;5136079;27;20501;-56
2022/09/03 07:51:52;;;;;;;1.60;1.50;;;;;;;27.31;94.30;95300.66;5135955;27;20437;-56
2022/09/03 07:54:22;;;;;;;1.53;1.43;;;;;;;27.85;93.34;95293.69;5136219;27;20570;-56
2022/09/03 07:56:52;;;;;;;0.90;0.90;;;;;;;28.15;94.35;95294.28;5136299;27;20537;-56
2022/09/03 07:59:21;;;;;;;0.80;0.80;;;;;;;28.16;94.71;95298.56;5135947;27;20436;-56
2022/09/03 08:01:51;;;;;;;0.80;0.80;;;;;;;28.28;86.99;95293.56;5135898;27;20472;-56
2022/09/03 08:04:20;;;;;;;1.07;0.90;;;;;;;29.20;85.43;95290.34;5136191;27;20518;-55
2022/09/03 08:06:54;;;;;;;2.93;0.53;;;;;;;29.84;77.74;95282.97;5135801;27;20952;-55
2022/09/03 08:09:23;;;;;;;1.40;1.07;;;;;;;29.81;71.86;95275.53;5135711;27;20420;-55
2022/09/03 08:11:53;;;;;;;5.93;2.63;;;;;;;29.67;73.26;95276.34;5135466;27;20459;-55
2022/09/03 08:14:21;;;;;;;0.70;0.70;;;;;;;30.90;67.97;95264.25;5135789;27;20602;-54
2022/09/03 08:16:50;;;;;;;0.97;0.83;;;;;;;30.87;69.42;95264.22;5135456;27;20462;-55
2022/09/03 08:19:18;;;;;;;1.90;1.80;;;;;;;30.65;64.18;95275.31;5135426;27;20458;-54
2022/09/03 08:21:47;;;;;;;0.80;0.80;;;;;;;30.92;63.39;95264.63;5135404;27;20424;-55
2022/09/03 08:24:19;;;;;;;0.90;0.90;;;;;;;31.55;61.45;95263.38;5135532;27;20460;-55
2022/09/03 08:26:48;;;;;;;2.23;1.43;;;;;;;30.82;59.84;95249.00;5134396;27;21007;-55
2022/09/03 08:29:21;;;;;;;0.60;0.60;;;;;;;30.72;63.48;95255.31;5135473;27;20959;-56
2022/09/03 08:31:50;;;;;;;1.10;1.00;;;;;;;30.51;63.45;95255.44;5135639;27;20426;-54
2022/09/03 08:34:20;;;;;;;0.93;0.93;;;;;;;30.33;69.96;95258.22;5134975;27;20932;-55
2022/09/03 08:36:49;;;;;;;1.43;1.33;;;;;;;29.27;68.49;95252.91;5135209;27;20482;-55
2022/09/03 08:39:17;;;;;;;0.80;0.80;;;;;;;28.62;77.48;95258.66;5135164;27;20422;-55
2022/09/03 08:42:18;;;;;;;2.17;2.07;;;;;;;28.81;76.86;95216.63;5135110;27;20421;-55
2022/09/03 08:44:51;;;;;;;0.77;0.77;;;;;;;29.47;78.82;95256.06;5134920;27;20445;-56
2022/09/03 08:47:23;;;;;;;1.07;1.07;;;;;;;28.97;75.21;95259.91;5134996;27;20432;-56
2022/09/03 08:49:56;;;;;;;1.03;0.77;;;;;;;29.32;76.21;95255.25;5135458;27;20449;-55
2022/09/03 08:52:32;;;;;;;0.63;0.60;;;;;;;28.64;81.35;95248.13;5134875;27;20475;-55
2022/09/03 08:55:16;;;;;;;0.40;0.30;;;;;;;29.65;76.75;95245.13;5135244;27;20799;-56
2022/09/03 08:57:48;;;;;;;1.13;1.10;;;;;;;30.33;73.03;95241.81;5135167;27;20496;-56
2022/09/03 09:00:18;;;;;;;1.10;0.93;;;;;;;30.30;72.29;95230.88;5135132;27;20463;-55
2022/09/03 09:03:01;;;;;;;0.83;0.83;;;;;;;31.36;62.11;95242.00;5134767;27;20520;-56
2022/09/03 09:05:41;;;;;;;0.73;0.73;;;;;;;31.25;60.80;95242.09;5134685;27;20454;-55
2022/09/03 09:08:18;;;;;;;1.90;0.83;;;;;;;31.66;60.25;95172.88;5134643;27;20476;-56
2022/09/03 09:10:50;;;;;;;1.87;1.00;;;;;;;32.20;52.03;95239.66;5134694;27;20571;-56
2022/09/03 09:13:27;;;;;;;2.87;1.03;;;;;;;31.92;52.64;95243.47;5134949;27;20793;-56
2022/09/03 09:16:10;;;;;;;0.50;0.50;;;;;;;32.83;50.01;95240.81;5134897;27;20501;-55
2022/09/03 09:18:50;;;;;;;0.53;0.53;;;;;;;33.27;47.70;95245.31;5134875;27;20433;-55
2022/09/03 09:21:23;;;;;;;0.80;0.53;;;;;;;33.57;49.41;95247.97;5134610;27;20512;-55
2022/09/03 09:24:00;;;;;;;1.03;0.80;;;;;;;34.42;42.69;95241.69;5134471;27;20797;-55
2022/09/03 09:26:29;;;;;;;0.93;0.83;;;;;;;34.48;43.18;95245.50;5134489;27;20462;-55
2022/09/03 09:29:02;;;;;;;1.53;0.80;;;;;;;33.36;43.12;95235.34;5134352;27;20525;-54
2022/09/03 09:31:34;;;;;;;0.50;0.40;;;;;;;34.60;44.89;95241.34;5134297;27;20425;-55
2022/09/03 09:34:05;;;;;;;0.53;0.50;;;;;;;35.52;37.91;95240.03;5133945;27;21042;-54
2022/09/03 09:36:42;;;;;;;1.70;1.17;;;;;;;34.41;40.09;95224.38;5134181;27;20422;-54
2022/09/03 09:39:14;;;;;;;2.93;0.77;;;;;;;34.12;41.13;95200.63;5133834;27;20966;-53
2022/09/03 09:41:43;;;;;;;0.77;0.77;;;;;;;35.20;40.50;95231.75;5133857;27;20182;-54
2022/09/03 09:44:20;;;;;;;0.73;0.73;;;;;;;35.08;37.85;95222.97;5134155;27;20217;-54
2022/09/03 09:46:50;;;;;;;0.73;0.73;;;;;;;35.23;36.48;95222.63;5133866;27;20220;-53
2022/09/03 09:49:31;;;;;;;1.50;0.90;;;;;;;34.38;38.33;95214.22;5133872;27;20184;-53
2022/09/03 09:52:08;;;;;;;0.50;0.50;;;;;;;34.86;39.09;95216.38;5134186;27;20300;-53
2022/09/03 09:54:36;;;;;;;0.60;0.60;;;;;;;33.98;40.67;95218.13;5133718;27;20242;-58
2022/09/03 09:57:07;;;;;;;0.50;0.50;;;;;;;34.52;41.42;95215.91;5133645;27;20274;-57
2022/09/03 09:59:36;;;;;;;0.73;0.67;;;;;;;35.08;38.94;95216.69;5133570;27;20275;-57
2022/09/03 10:02:14;;;;;;;0.53;0.50;;;;;;;35.18;38.77;95168.03;5133443;27;20233;-57
2022/09/03 10:04:50;;;;;;;1.53;1.43;;;;;;;35.41;38.68;95217.44;5133637;27;20242;-57
2022/09/03 10:07:25;;;;;;;1.03;0.90;;;;;;;35.84;37.24;95209.66;5133528;27;20183;-57
2022/09/03 10:10:02;;;;;;;0.50;0.43;;;;;;;35.09;39.10;95202.47;5133455;27;20233;-57
2022/09/03 10:12:35;;;;;;;0.97;0.90;;;;;;;34.23;39.85;95201.94;5133739;27;20183;-58
2022/09/03 10:15:13;;;;;;;0.97;0.97;;;;;;;35.21;41.73;95200.22;5133466;27;20320;-57
2022/09/03 10:17:53;;;;;;;0.50;0.50;;;;;;;35.35;38.86;95208.91;5133223;27;20635;-57
2022/09/03 10:20:32;;;;;;;0.70;0.70;;;;;;;35.11;38.57;95199.28;5133545;27;20301;-57
2022/09/03 10:23:08;;;;;;;1.07;1.07;;;;;;;34.36;43.85;95211.13;5133333;27;20250;-57
2022/09/03 10:25:40;;;;;;;1.10;0.83;;;;;;;34.71;44.78;95208.84;5133203;27;20265;-58
2022/09/03 10:28:10;;;;;;;0.80;0.80;;;;;;;35.36;40.71;95215.22;5133030;27;20191;-57
2022/09/03 10:31:07;;;;;;;1.57;0.80;;;;;;;35.85;39.53;95216.72;5133421;27;20613;-57
2022/09/03 10:33:43;;;;;;;1.03;0.93;;;;;;;35.18;39.32;95204.63;5132964;27;20233;-57
2022/09/03 10:36:19;;;;;;;0.60;0.45;;;;;;;35.07;41.14;95206.84;5132773;27;20281;-57
2022/09/03 10:38:53;;;;;;;6.33;1.07;;;;;;;34.67;40.45;95197.13;5132913;27;20237;-58
2022/09/03 10:41:39;;;;;;;0.60;0.60;;;;;;;34.18;41.56;95204.44;5133185;27;20191;-58
2022/09/03 10:44:24;;;;;;;0.60;0.60;;;;;;;34.75;43.67;95204.81;5132747;27;20626;-57
2022/09/03 10:47:03;;;;;;;0.60;0.60;;;;;;;33.55;47.03;95211.91;5133034;27;20183;-58
2022/09/03 10:49:54;;;;;;;1.93;1.53;;;;;;;34.52;42.90;95195.84;5132429;27;20190;-58
2022/09/03 10:52:31;;;;;;;0.57;0.57;;;;;;;35.00;41.53;95195.97;5132592;27;20735;-56
2022/09/03 10:55:14;;;;;;;0.53;0.53;;;;;;;35.24;41.15;95191.09;5132512;27;20655;-58
2022/09/03 10:57:51;;;;;;;0.90;0.90;;;;;;;34.98;43.40;95179.88;5132740;27;20596;-57
2022/09/03 11:00:21;;;;;;;1.67;1.57;;;;;;;35.09;44.07;95190.69;5132586;27;20211;-55
2022/09/03 11:03:25;;;;;;;1.17;1.07;;;;;;;35.91;40.72;95184.63;5132988;27;20679;-56
2022/09/03 11:06:06;;;;;;;1.00;0.90;;;;;;;36.08;39.12;95188.91;5133126;28;20255;-56
2022/09/03 11:08:39;;;;;;;1.87;1.03;;;;;;;35.99;39.91;95191.50;5132777;28;20241;-56
2022/09/03 11:11:13;;;;;;;0.60;0.60;;;;;;;36.67;38.95;95184.88;5132943;28;20266;-57
2022/09/03 11:13:49;;;;;;;0.93;0.93;;;;;;;36.26;40.72;95178.16;5132457;28;20198;-57
2022/09/03 11:16:25;;;;;;;0.93;0.83;;;;;;;35.62;40.96;95178.34;5132658;28;20186;-58
2022/09/03 11:18:57;;;;;;;2.00;0.60;;;;;;;36.46;40.22;95182.72;5132353;28;20186;-57
2022/09/03 11:21:30;;;;;;;1.70;1.23;;;;;;;35.77;45.64;95190.56;5132614;28;20265;-56
2022/09/03 11:24:12;;;;;;;0.97;0.97;;;;;;;36.28;41.56;95186.00;5132242;28;20277;-56
2022/09/03 11:26:43;;;;;;;1.33;1.23;;;;;;;36.69;38.30;95176.91;5132551;28;20225;-56
2022/09/03 11:29:18;;;;;;;0.60;0.60;;;;;;;37.01;37.81;95182.25;5132812;28;20261;-57
2022/09/03 11:31:56;;;;;;;0.65;0.65;;;;;;;36.53;38.58;95174.25;5132394;28;20223;-57
2022/09/03 11:34:31;;;;;;;0.50;0.50;;;;;;;37.17;37.37;95173.81;5132175;28;20238;-57
2022/09/03 11:37:23;;;;;;;0.98;0.88;;;;;;;36.55;35.75;95180.13;5132553;28;20189;-57
2022/09/03 11:39:58;;;;;;;0.73;0.63;;;;;;;36.48;38.14;95144.44;5132552;28;20184;-56
2022/09/03 11:42:32;;;;;;;10.75;1.42;;;;;;;37.18;35.95;95177.38;5132953;27;20197;-71
2022/09/03 11:45:23;;;;;;;0.82;0.70;;;;;;;37.70;35.08;95177.59;5133382;28;20190;-67
2022/09/03 11:47:53;;;;;;;0.77;0.40;;;;;;;38.43;33.52;95178.19;5133156;27;20239;-68
2022/09/03 11:50:26;;;;;;;0.80;0.80;;;;;;;38.11;32.09;95171.81;5133203;27;20192;-69
2022/09/03 11:53:08;;;;;;;1.23;1.20;;;;;;;37.75;34.68;95176.28;5136175;28;20196;-70
2022/09/03 11:55:53;;;;;;;0.68;0.68;;;;;;;37.73;33.35;95173.94;5135617;28;20205;-68
2022/09/03 11:58:26;;;;;;;0.68;0.68;;;;;;;37.38;34.54;95164.84;5134372;28;20202;-69